Time;durP1;ratioP1;P1;durP2;ratioP2;P2;SDS_P1;SDS_P2;PMS_P1;PMS_P2;Temp;Humidity;BMP_temperature;BMP_pressure;BME280_temperature;BME280_humidity;BME280_pressure;Samples;Min_cycle;Max_cycle;Signal;HPM_P1;HPM_P2
2022/11/14 00:01:42;;;;;;;30.55;17.83;;;;;;;5.02;100.00;101543.81;5112739;28;20048;-50
2022/11/14 00:04:10;;;;;;;30.48;19.75;;;;;;;4.94;100.00;101540.59;5112519;28;20043;-52
2022/11/14 00:06:39;;;;;;;31.67;18.27;;;;;;;4.88;100.00;101544.22;5112188;28;20454;-52
2022/11/14 00:09:07;;;;;;;30.60;19.27;;;;;;;4.86;100.00;101536.44;5109818;28;20449;-52
2022/11/14 00:11:38;;;;;;;34.85;21.08;;;;;;;4.90;100.00;101532.84;5109305;28;20055;-52
2022/11/14 00:14:07;;;;;;;32.00;19.95;;;;;;;4.85;100.00;101529.56;5109009;28;20047;-53
2022/11/14 00:16:35;;;;;;;33.25;19.13;;;;;;;4.78;100.00;101533.22;5108539;28;20051;-51
2022/11/14 00:19:03;;;;;;;34.88;20.08;;;;;;;4.86;100.00;101526.03;5109308;28;20039;-54
2022/11/14 00:21:32;;;;;;;34.78;21.35;;;;;;;4.79;100.00;101521.91;5108899;28;20048;-49
2022/11/14 00:24:04;;;;;;;36.78;21.40;;;;;;;4.69;100.00;101523.06;5110471;28;20036;-52
2022/11/14 00:26:34;;;;;;;37.25;21.23;;;;;;;4.77;100.00;101530.66;5112394;28;20083;-50
2022/11/14 00:29:03;;;;;;;37.08;21.85;;;;;;;4.63;100.00;101529.31;5111939;28;20052;-52
2022/11/14 00:31:31;;;;;;;34.97;20.70;;;;;;;4.65;100.00;101521.44;5111494;28;20051;-48
2022/11/14 00:34:07;;;;;;;34.13;20.00;;;;;;;4.72;100.00;101523.00;5107277;28;20134;-50
2022/11/14 00:36:36;;;;;;;36.08;21.42;;;;;;;4.71;100.00;101516.06;5109628;28;20043;-49
2022/11/14 00:39:07;;;;;;;35.85;20.95;;;;;;;4.68;100.00;101517.00;5112284;28;20555;-51
2022/11/14 00:41:35;;;;;;;35.85;20.45;;;;;;;4.69;100.00;101510.91;5112202;28;20118;-51
2022/11/14 00:44:06;;;;;;;36.28;20.85;;;;;;;4.71;100.00;101511.69;5112443;28;20421;-50
2022/11/14 00:46:37;;;;;;;;;;;;;;;4.55;100.00;101508.72;5112724;28;20047;-51
2022/11/14 00:49:06;;;;;;;38.00;21.23;;;;;;;4.61;100.00;101501.59;5112076;28;19924;-48
2022/11/14 00:51:43;;;;;;;37.70;21.55;;;;;;;4.59;100.00;101500.78;5112258;28;20521;-52
2022/11/14 00:54:16;;;;;;;43.38;23.98;;;;;;;4.49;100.00;101498.47;5112484;28;20062;-49
2022/11/14 00:56:44;;;;;;;39.20;21.45;;;;;;;4.46;100.00;101495.06;5111979;28;20498;-51
2022/11/14 00:59:16;;;;;;;41.92;23.75;;;;;;;4.36;100.00;101497.09;5112029;28;20131;-51
2022/11/14 01:01:46;;;;;;;37.13;22.35;;;;;;;4.44;100.00;101489.06;5111960;28;20100;-48
2022/11/14 01:04:14;;;;;;;37.97;22.95;;;;;;;4.35;100.00;101492.78;5115268;28;20036;-49
2022/11/14 01:06:47;;;;;;;39.85;23.20;;;;;;;4.29;100.00;101499.03;5115679;28;20054;-49
2022/11/14 01:09:16;;;;;;;37.45;22.52;;;;;;;4.33;100.00;101487.63;5115761;28;20039;-47
2022/11/14 01:11:45;;;;;;;37.53;22.48;;;;;;;4.35;100.00;101479.75;5115687;28;20044;-48
2022/11/14 01:14:14;;;;;;;37.22;21.90;;;;;;;4.28;100.00;101475.63;5115981;28;20728;-49
2022/11/14 01:16:43;;;;;;;40.50;23.27;;;;;;;4.23;100.00;101474.00;5115557;28;20039;-48
2022/11/14 01:19:11;;;;;;;38.13;21.98;;;;;;;4.30;100.00;101468.66;5115508;28;20047;-48
2022/11/14 01:21:46;;;;;;;39.88;22.92;;;;;;;4.19;100.00;101466.34;5115182;27;20127;-49
2022/11/14 01:24:21;;;;;;;40.42;23.17;;;;;;;4.22;100.00;101461.03;5115256;28;20061;-48
2022/11/14 01:26:49;;;;;;;47.75;23.10;;;;;;;4.27;100.00;101463.50;5115383;28;20073;-51
2022/11/14 01:29:17;;;;;;;42.50;24.30;;;;;;;4.21;100.00;101454.13;5115361;27;20366;-47
2022/11/14 01:31:45;;;;;;;43.63;23.55;;;;;;;4.21;100.00;101460.19;5115533;28;20070;-49
2022/11/14 01:34:14;;;;;;;41.88;23.58;;;;;;;4.28;100.00;101453.06;5114931;28;20157;-50
2022/11/14 01:36:48;;;;;;;40.85;24.00;;;;;;;4.25;100.00;101450.53;5113628;28;20051;-49
2022/11/14 01:39:34;;;;;;;44.47;24.70;;;;;;;4.21;100.00;101441.97;5115267;28;20082;-49
2022/11/14 01:42:13;;;;;;;45.05;24.98;;;;;;;4.12;100.00;101439.63;5113643;28;20602;-48
2022/11/14 01:44:47;;;;;;;40.65;23.20;;;;;;;4.12;100.00;101437.03;5114589;28;20079;-47
2022/11/14 01:47:22;;;;;;;41.83;23.45;;;;;;;4.18;100.00;101433.38;5114685;27;20040;-49
2022/11/14 01:49:57;;;;;;;44.33;25.75;;;;;;;4.03;100.00;101425.09;5114693;28;20043;-50
2022/11/14 01:52:36;;;;;;;43.58;24.20;;;;;;;4.06;100.00;101419.84;5114497;27;20526;-52
2022/11/14 01:55:10;;;;;;;42.47;24.13;;;;;;;3.99;100.00;101420.88;5114852;28;20040;-49
2022/11/14 01:57:42;;;;;;;45.47;24.83;;;;;;;3.95;100.00;101415.81;5114890;28;20105;-48
2022/11/14 02:00:12;;;;;;;46.67;25.33;;;;;;;3.89;100.00;101411.66;5114706;28;20043;-47
2022/11/14 02:02:41;;;;;;;45.40;24.27;;;;;;;3.91;100.00;101414.22;5114344;28;20131;-47
2022/11/14 02:05:16;;;;;;;43.90;25.33;;;;;;;3.87;100.00;101414.31;5114456;28;20035;-51
2022/11/14 02:07:45;;;;;;;44.90;23.83;;;;;;;3.82;100.00;101405.75;5114822;28;20567;-48
2022/11/14 02:10:19;;;;;;;42.45;23.50;;;;;;;3.81;100.00;101408.41;5114410;28;20043;-51
2022/11/14 02:12:58;;;;;;;46.10;24.15;;;;;;;3.80;100.00;101399.72;5114323;28;20048;-48
2022/11/14 02:15:29;;;;;;;42.15;24.08;;;;;;;3.83;100.00;101402.28;5113561;28;20039;-49
2022/11/14 02:18:03;;;;;;;46.45;25.05;;;;;;;3.79;100.00;101384.16;5114441;28;20044;-46
2022/11/14 02:20:42;;;;;;;49.25;24.83;;;;;;;3.73;100.00;101382.59;5114453;28;20051;-46
2022/11/14 02:23:13;;;;;;;44.67;24.42;;;;;;;3.72;100.00;101378.28;5114050;28;20042;-47
2022/11/14 02:25:53;;;;;;;50.60;25.83;;;;;;;3.63;100.00;101382.00;5114340;28;20443;-49
2022/11/14 02:28:24;;;;;;;45.78;23.98;;;;;;;3.71;100.00;101376.59;5114215;28;20046;-50
2022/11/14 02:30:52;;;;;;;44.15;24.10;;;;;;;3.59;100.00;101382.97;5114414;28;20432;-49
2022/11/14 02:33:26;;;;;;;45.30;24.38;;;;;;;3.54;100.00;101369.25;5112739;28;20124;-47
2022/11/14 02:36:05;;;;;;;46.80;24.30;;;;;;;3.54;100.00;101375.31;5114022;28;20491;-47
2022/11/14 02:38:41;;;;;;;46.55;24.02;;;;;;;3.55;100.00;101379.59;5114001;28;20089;-50
2022/11/14 02:41:18;;;;;;;45.95;23.90;;;;;;;3.60;100.00;101374.28;5112562;27;20067;-50
2022/11/14 02:43:58;;;;;;;44.70;23.77;;;;;;;3.57;100.00;101376.13;5113530;28;20040;-49
2022/11/14 02:46:36;;;;;;;45.17;23.75;;;;;;;3.57;100.00;101373.50;5114341;28;20055;-47
2022/11/14 02:49:04;;;;;;;46.92;25.17;;;;;;;3.58;100.00;101373.47;5113912;28;20051;-49
2022/11/14 02:51:38;;;;;;;42.80;22.50;;;;;;;3.60;100.00;101370.81;5112393;28;20108;-48
2022/11/14 02:54:09;;;;;;;47.08;24.70;;;;;;;3.67;100.00;101365.41;5113695;28;20516;-48
2022/11/14 02:56:49;;;;;;;44.08;23.25;;;;;;;3.55;100.00;101364.00;5113459;28;20058;-47
2022/11/14 02:59:31;;;;;;;44.10;24.05;;;;;;;3.53;100.00;101365.81;5111842;28;20084;-49
2022/11/14 03:02:09;;;;;;;46.63;23.20;;;;;;;3.50;100.00;101362.41;5113689;28;20104;-48
2022/11/14 03:04:49;;;;;;;44.30;23.50;;;;;;;3.53;100.00;101367.53;5113330;28;20525;-47
2022/11/14 03:07:18;;;;;;;43.58;24.35;;;;;;;3.44;100.00;101362.59;5112530;28;20052;-48
2022/11/14 03:10:03;;;;;;;44.28;22.50;;;;;;;3.43;100.00;101376.50;5113355;28;20051;-47
2022/11/14 03:12:44;;;;;;;48.45;23.08;;;;;;;3.36;100.00;101365.41;5111812;28;20176;-49
2022/11/14 03:15:22;;;;;;;46.17;22.30;;;;;;;3.46;100.00;101360.78;5113374;28;20375;-48
2022/11/14 03:18:08;;;;;;;40.85;21.80;;;;;;;3.51;100.00;101359.78;5111423;28;20054;-46
2022/11/14 03:20:45;;;;;;;41.67;21.70;;;;;;;3.45;100.00;101353.88;5112826;28;20379;-47
2022/11/14 03:23:14;;;;;;;42.17;22.42;;;;;;;3.33;100.00;101350.72;5112764;28;20074;-46
2022/11/14 03:25:42;;;;;;;45.88;23.75;;;;;;;3.37;100.00;101351.50;5112745;28;20394;-49
2022/11/14 03:28:22;;;;;;;46.30;23.08;;;;;;;3.30;100.00;101344.75;5112979;28;20122;-50
2022/11/14 03:30:51;;;;;;;45.40;22.63;;;;;;;3.39;100.00;101349.69;5113216;28;20382;-47
2022/11/14 03:33:40;;;;;;;40.67;22.05;;;;;;;3.30;100.00;101344.75;5111405;28;20046;-48
2022/11/14 03:36:13;;;;;;;42.78;22.30;;;;;;;3.30;100.00;101345.63;5112699;28;20522;-46
2022/11/14 03:38:49;;;;;;;40.70;22.10;;;;;;;3.27;100.00;101347.44;5112469;28;20375;-46
2022/11/14 03:41:20;;;;;;;42.70;23.08;;;;;;;3.26;100.00;101340.53;5112833;28;20050;-46
2022/11/14 03:43:53;;;;;;;41.45;22.10;;;;;;;3.34;100.00;101343.78;5112494;28;20067;-45
2022/11/14 03:46:24;;;;;;;42.10;23.08;;;;;;;3.33;100.00;101329.09;5112708;28;20059;-48
2022/11/14 03:48:52;;;;;;;39.63;21.98;;;;;;;3.31;100.00;101330.84;5112561;28;20040;-47
2022/11/14 03:51:28;;;;;;;42.30;22.02;;;;;;;3.22;100.00;101330.22;5111224;28;20134;-47
2022/11/14 03:54:09;;;;;;;45.22;23.00;;;;;;;3.14;100.00;101337.38;5112376;28;20047;-46
2022/11/14 03:56:46;;;;;;;41.17;21.88;;;;;;;3.17;100.00;101328.63;5112676;28;20040;-48
2022/11/14 03:59:14;;;;;;;43.92;21.90;;;;;;;3.23;100.00;101328.44;5112321;28;20061;-49
2022/11/14 04:01:43;;;;;;;44.42;21.73;;;;;;;3.23;100.00;101328.44;5112565;28;20044;-47
2022/11/14 04:04:12;;;;;;;48.40;23.92;;;;;;;3.13;100.00;101322.66;5112420;28;20069;-47
2022/11/14 04:06:40;;;;;;;46.25;23.38;;;;;;;3.12;100.00;101320.97;5112282;28;20490;-46
2022/11/14 04:09:12;;;;;;;45.35;23.60;;;;;;;3.15;100.00;101313.09;5112564;28;20081;-47
2022/11/14 04:11:42;;;;;;;46.72;23.60;;;;;;;3.04;100.00;101296.91;5112726;28;20116;-47
2022/11/14 04:14:15;;;;;;;45.55;21.70;;;;;;;3.04;100.00;101302.97;5112562;28;20043;-48
2022/11/14 04:16:43;;;;;;;43.38;21.60;;;;;;;3.11;100.00;101298.47;5112567;28;20040;-48
2022/11/14 04:19:20;;;;;;;47.55;21.17;;;;;;;3.08;100.00;101308.94;5112465;28;20071;-47
2022/11/14 04:21:51;;;;;;;42.70;22.15;;;;;;;3.11;100.00;101302.78;5111889;28;20100;-46
2022/11/14 04:24:21;;;;;;;41.30;21.10;;;;;;;3.07;100.00;101307.25;5111680;28;20554;-45
2022/11/14 04:26:53;;;;;;;44.53;21.95;;;;;;;3.11;100.00;101306.25;5112243;28;20478;-45
2022/11/14 04:29:22;;;;;;;44.47;21.75;;;;;;;3.12;100.00;101299.31;5112157;28;20108;-46
2022/11/14 04:32:02;;;;;;;42.80;21.58;;;;;;;3.03;100.00;101305.63;5112460;28;20071;-46
2022/11/14 04:34:33;;;;;;;41.67;22.92;;;;;;;3.02;100.00;101296.94;5112356;28;20062;-47
2022/11/14 04:37:18;;;;;;;41.92;21.17;;;;;;;3.05;100.00;101298.63;5112250;28;20486;-48
2022/11/14 04:40:01;;;;;;;46.65;22.67;;;;;;;3.01;100.00;101299.59;5115085;28;20134;-52
2022/11/14 04:42:45;;;;;;;42.42;21.77;;;;;;;2.99;100.00;101304.81;5114561;28;20522;-45
2022/11/14 04:45:13;;;;;;;38.83;21.15;;;;;;;2.94;100.00;101298.06;5116090;27;20048;-51
2022/11/14 04:47:41;;;;;;;44.92;22.17;;;;;;;2.83;100.00;101293.97;5115985;28;20444;-49
2022/11/14 04:50:10;;;;;;;45.50;21.75;;;;;;;2.82;100.00;101292.28;5112564;28;20146;-51
2022/11/14 04:52:38;;;;;;;40.22;21.02;;;;;;;2.81;100.00;101294.91;5114201;27;20676;-48
2022/11/14 04:55:10;;;;;;;43.38;21.90;;;;;;;2.81;100.00;101289.69;5115883;28;20108;-46
2022/11/14 04:57:39;;;;;;;42.25;22.17;;;;;;;2.79;100.00;101284.56;5115920;28;20054;-47
2022/11/14 05:00:08;;;;;;;44.08;22.45;;;;;;;2.69;100.00;101285.69;5115052;27;20043;-46
2022/11/14 05:02:39;;;;;;;42.33;21.67;;;;;;;2.75;100.00;101280.31;5114261;28;20778;-46
2022/11/14 05:05:17;;;;;;;45.53;22.30;;;;;;;2.73;100.00;101273.47;5115804;28;20096;-48
2022/11/14 05:07:48;;;;;;;42.80;22.17;;;;;;;2.74;100.00;101278.66;5116111;28;20508;-50
2022/11/14 05:10:21;;;;;;;42.63;21.70;;;;;;;2.72;100.00;101271.78;5115380;28;20044;-48
2022/11/14 05:12:55;;;;;;;44.00;22.67;;;;;;;2.69;100.00;101272.72;5114415;28;20070;-50
2022/11/14 05:15:35;;;;;;;42.10;20.77;;;;;;;2.66;100.00;101275.38;5114418;28;20074;-50
2022/11/14 05:18:07;;;;;;;44.53;22.63;;;;;;;2.68;100.00;101278.78;5114293;28;20051;-51
2022/11/14 05:20:41;;;;;;;41.35;20.80;;;;;;;2.66;100.00;101271.03;5115430;28;20043;-48
2022/11/14 05:23:18;;;;;;;45.63;22.42;;;;;;;2.63;100.00;101262.47;5115157;28;20502;-48
2022/11/14 05:25:58;;;;;;;43.20;21.33;;;;;;;2.67;100.00;101267.56;5115002;28;20109;-48
2022/11/14 05:28:26;;;;;;;44.47;21.88;;;;;;;2.65;100.00;101268.47;5115183;27;20089;-51
2022/11/14 05:31:02;;;;;;;39.17;21.05;;;;;;;2.63;100.00;101265.06;5115108;28;20096;-51
2022/11/14 05:33:37;;;;;;;43.00;21.92;;;;;;;2.56;100.00;101259.16;5113950;27;20058;-48
2022/11/14 05:36:10;;;;;;;43.30;21.98;;;;;;;2.51;100.00;101256.69;5115224;28;20046;-48
2022/11/14 05:38:40;;;;;;;;;;;;;;;2.57;100.00;101257.44;5115445;28;20056;-45
2022/11/14 05:41:20;;;;;;;44.30;20.95;;;;;;;2.50;100.00;101260.16;5114989;28;19928;-47
2022/11/14 05:43:53;;;;;;;43.58;21.67;;;;;;;2.57;100.00;101254.84;5115159;27;20101;-46
2022/11/14 05:46:40;;;;;;;40.88;20.55;;;;;;;2.55;100.00;101257.47;5108720;28;20075;-46
2022/11/14 05:49:19;;;;;;;41.85;21.08;;;;;;;2.48;100.00;101251.59;5110685;27;20044;-46
2022/11/14 05:52:09;;;;;;;41.70;21.20;;;;;;;2.53;100.00;101247.09;5113000;28;20040;-45
2022/11/14 05:54:47;;;;;;;38.85;18.95;;;;;;;2.50;100.00;101249.78;5114899;28;20104;-50
2022/11/14 05:57:29;;;;;;;41.03;19.83;;;;;;;2.53;100.00;101239.31;5114776;28;20050;-47
2022/11/14 06:00:06;;;;;;;40.03;20.33;;;;;;;2.48;100.00;101242.91;5114367;28;20054;-50
2022/11/14 06:02:50;;;;;;;38.75;20.48;;;;;;;2.48;100.00;101232.53;5113059;28;20047;-47
2022/11/14 06:05:28;;;;;;;39.83;19.42;;;;;;;2.50;100.00;101236.81;5112852;28;20402;-47
2022/11/14 06:08:14;;;;;;;43.70;20.27;;;;;;;2.45;100.00;101236.06;5114633;27;20100;-50
2022/11/14 06:10:56;;;;;;;38.40;19.95;;;;;;;2.39;100.00;101240.53;5112801;27;20498;-47
2022/11/14 06:13:26;;;;;;;40.92;20.25;;;;;;;2.32;100.00;101240.72;5114167;28;20039;-49
2022/11/14 06:15:59;;;;;;;36.45;18.65;;;;;;;2.30;100.00;101245.06;5113399;27;20040;-47
2022/11/14 06:18:30;;;;;;;41.03;19.80;;;;;;;2.33;100.00;101233.75;5109521;28;20096;-51
2022/11/14 06:21:12;;;;;;;36.53;19.02;;;;;;;2.27;100.00;101241.72;5112997;28;20052;-51
2022/11/14 06:23:55;;;;;;;37.75;20.33;;;;;;;2.24;100.00;101247.00;5112322;28;20054;-50
2022/11/14 06:26:24;;;;;;;42.42;20.67;;;;;;;2.16;100.00;101242.81;5112582;28;20088;-46
2022/11/14 06:28:55;;;;;;;37.72;18.38;;;;;;;2.32;100.00;101239.88;5109398;28;20086;-46
2022/11/14 06:31:26;;;;;;;36.00;18.60;;;;;;;2.24;100.00;101252.19;5111565;28;20056;-47
2022/11/14 06:33:55;;;;;;;41.22;20.40;;;;;;;2.23;100.00;101253.06;5114006;28;20138;-47
2022/11/14 06:36:24;;;;;;;38.00;20.33;;;;;;;2.19;100.00;101258.31;5109712;28;20044;-48
2022/11/14 06:38:52;;;;;;;35.85;18.63;;;;;;;2.16;100.00;101258.38;5111805;28;20051;-47
2022/11/14 06:41:24;;;;;;;36.30;18.27;;;;;;;2.13;100.00;101250.69;5113849;28;20375;-46
2022/11/14 06:43:56;;;;;;;34.33;19.05;;;;;;;2.19;100.00;101253.13;5112646;28;20387;-49
2022/11/14 06:46:26;;;;;;;41.70;19.15;;;;;;;2.21;100.00;101253.09;5113642;28;20134;-47
2022/11/14 06:48:55;;;;;;;38.92;19.60;;;;;;;2.22;100.00;101254.78;5113578;28;20410;-50
2022/11/14 06:51:23;;;;;;;40.78;19.05;;;;;;;2.16;100.00;101252.34;5113477;28;20146;-47
2022/11/14 06:53:52;;;;;;;34.70;18.67;;;;;;;2.19;100.00;101253.13;5113527;28;20582;-50
2022/11/14 06:56:20;;;;;;;35.00;18.80;;;;;;;2.22;100.00;101256.53;5113324;28;20131;-48
2022/11/14 06:58:49;;;;;;;39.88;19.17;;;;;;;2.15;100.00;101251.47;5113529;28;20040;-47
2022/11/14 07:01:20;;;;;;;38.13;19.27;;;;;;;2.09;100.00;101243.03;5111156;28;20055;-49
2022/11/14 07:03:49;;;;;;;36.13;17.65;;;;;;;2.07;100.00;101245.63;5109237;28;20101;-49
2022/11/14 07:06:19;;;;;;;36.30;18.13;;;;;;;2.15;100.00;101248.03;5109375;28;20096;-48
2022/11/14 07:08:47;;;;;;;37.03;19.08;;;;;;;2.10;100.00;101250.75;5110358;28;20043;-50
2022/11/14 07:11:22;;;;;;;38.10;18.73;;;;;;;2.05;100.00;101244.81;5110009;28;20079;-50
2022/11/14 07:13:51;;;;;;;36.78;18.75;;;;;;;2.05;100.00;101251.75;5109267;28;20052;-48
2022/11/14 07:16:23;;;;;;;37.00;19.30;;;;;;;2.06;100.00;101254.31;5110166;28;20134;-48
2022/11/14 07:18:51;;;;;;;33.42;17.27;;;;;;;2.12;100.00;101254.16;5109763;28;20050;-49
2022/11/14 07:21:19;;;;;;;38.60;19.48;;;;;;;2.16;100.00;101249.75;5113107;28;20079;-47
2022/11/14 07:23:48;;;;;;;35.85;18.42;;;;;;;2.15;100.00;101259.25;5113285;28;20058;-48
2022/11/14 07:26:16;;;;;;;35.13;19.05;;;;;;;2.13;100.00;101263.66;5108295;28;20049;-48
2022/11/14 07:28:45;;;;;;;35.00;18.88;;;;;;;2.17;100.00;101267.03;5109140;28;20055;-49
2022/11/14 07:31:21;;;;;;;37.17;18.65;;;;;;;2.16;100.00;101267.94;5110976;28;20044;-48
2022/11/14 07:33:49;;;;;;;35.22;18.55;;;;;;;2.27;100.00;101267.69;5112418;28;20051;-48
2022/11/14 07:36:18;;;;;;;32.75;17.85;;;;;;;2.38;100.00;101270.00;5112995;28;20055;-50
2022/11/14 07:38:46;;;;;;;37.42;18.58;;;;;;;2.45;100.00;101264.63;5109388;28;20566;-49
2022/11/14 07:41:16;;;;;;;36.25;18.30;;;;;;;2.38;100.00;101260.47;5110385;28;20066;-51
2022/11/14 07:43:44;;;;;;;38.40;17.92;;;;;;;2.51;100.00;101243.72;5112475;28;20191;-48
2022/11/14 07:46:14;;;;;;;37.15;18.05;;;;;;;2.78;100.00;101249.09;5111151;28;20051;-51
2022/11/14 07:48:44;;;;;;;36.30;17.92;;;;;;;2.84;100.00;101251.50;5112670;28;20558;-50
2022/11/14 07:51:16;;;;;;;34.72;17.27;;;;;;;2.93;100.00;101247.84;5112122;28;20040;-49
2022/11/14 07:53:47;;;;;;;34.47;18.05;;;;;;;3.21;100.00;101250.50;5108908;27;20482;-49
2022/11/14 07:56:16;;;;;;;33.03;17.42;;;;;;;3.37;100.00;101242.31;5109303;28;20051;-51
2022/11/14 07:58:44;;;;;;;33.53;17.35;;;;;;;3.25;100.00;101242.66;5111009;28;20043;-52
2022/11/14 08:01:14;;;;;;;31.92;17.05;;;;;;;3.55;100.00;101241.75;5109048;28;20129;-50
2022/11/14 08:03:44;;;;;;;33.28;17.08;;;;;;;3.62;100.00;101236.38;5108391;28;20524;-49
2022/11/14 08:06:14;;;;;;;31.90;16.40;;;;;;;3.88;100.00;101240.78;5108143;28;20058;-52
2022/11/14 08:08:43;;;;;;;33.42;17.88;;;;;;;3.70;100.00;101243.03;5110819;28;20051;-48
2022/11/14 08:11:11;;;;;;;35.47;18.63;;;;;;;3.80;100.00;101238.41;5109040;28;20059;-51
2022/11/14 08:13:39;;;;;;;30.77;16.33;;;;;;;3.93;100.00;101238.03;5111922;28;20470;-53
2022/11/14 08:16:10;;;;;;;31.52;16.52;;;;;;;4.01;100.00;101238.66;5116599;28;20763;-47
2022/11/14 08:18:41;;;;;;;30.13;16.58;;;;;;;4.06;100.00;101239.34;5114846;28;20051;-50
2022/11/14 08:21:10;;;;;;;28.70;16.13;;;;;;;4.09;100.00;101231.47;5112805;28;20047;-48
2022/11/14 08:23:39;;;;;;;34.47;16.63;;;;;;;4.31;100.00;101221.19;5112534;28;20043;-51
2022/11/14 08:26:07;;;;;;;31.13;16.55;;;;;;;4.33;100.00;101216.78;5113012;27;20047;-48
2022/11/14 08:28:35;;;;;;;27.80;16.30;;;;;;;4.16;100.00;101206.06;5111750;28;20502;-49
2022/11/14 08:31:04;;;;;;;31.25;16.67;;;;;;;4.31;100.00;101215.13;5116219;28;20069;-45
2022/11/14 08:33:37;;;;;;;30.02;16.85;;;;;;;4.34;100.00;101213.28;5115861;28;20040;-47
2022/11/14 08:36:07;;;;;;;27.85;15.38;;;;;;;4.45;100.00;101204.28;5115956;28;20163;-47
2022/11/14 08:38:36;;;;;;;29.55;16.10;;;;;;;4.34;100.00;101195.06;5116139;28;20039;-46
2022/11/14 08:41:05;;;;;;;34.40;17.20;;;;;;;4.54;100.00;101193.50;5116103;28;20043;-46
2022/11/14 08:43:34;;;;;;;29.80;16.98;;;;;;;4.76;100.00;101200.59;5116245;28;20097;-46
2022/11/14 08:46:05;;;;;;;31.10;17.35;;;;;;;4.68;100.00;101203.47;5115948;28;20112;-47
2022/11/14 08:48:34;;;;;;;29.45;16.38;;;;;;;4.64;100.00;101207.09;5115739;28;20044;-47
2022/11/14 08:51:04;;;;;;;31.27;17.17;;;;;;;4.64;100.00;101207.09;5116045;27;20066;-47
2022/11/14 08:53:33;;;;;;;32.10;16.75;;;;;;;4.68;100.00;101217.34;5112457;28;20428;-49
2022/11/14 08:56:03;;;;;;;27.50;15.40;;;;;;;4.51;100.00;101207.53;5112625;28;20051;-48
2022/11/14 08:58:32;;;;;;;27.02;15.10;;;;;;;4.61;100.00;101204.56;5115291;28;20047;-48
2022/11/14 09:01:02;;;;;;;27.05;16.27;;;;;;;4.59;100.00;101206.41;5115715;28;20043;-50
2022/11/14 09:03:30;;;;;;;29.58;16.63;;;;;;;4.61;100.00;101199.38;5114926;28;20350;-47
2022/11/14 09:06:01;;;;;;;29.77;16.70;;;;;;;4.68;100.00;101200.88;5115762;28;20486;-49
2022/11/14 09:08:31;;;;;;;33.45;16.38;;;;;;;4.60;100.00;101195.91;5115587;28;20048;-51
2022/11/14 09:11:02;;;;;;;30.15;15.77;;;;;;;4.65;100.00;101198.34;5114217;28;20098;-46
2022/11/14 09:13:33;;;;;;;28.92;16.20;;;;;;;4.82;100.00;101196.00;5110351;28;20551;-51
2022/11/14 09:16:01;;;;;;;31.58;17.02;;;;;;;4.97;100.00;101199.00;5114137;28;20454;-50
2022/11/14 09:18:30;;;;;;;30.75;16.80;;;;;;;4.97;100.00;101188.56;5115416;28;20035;-52
2022/11/14 09:21:03;;;;;;;29.80;16.60;;;;;;;5.04;100.00;101175.22;5115257;28;20387;-48
2022/11/14 09:23:32;;;;;;;29.90;16.65;;;;;;;5.13;100.00;101187.09;5114851;28;20050;-51
2022/11/14 09:26:05;;;;;;;27.15;15.88;;;;;;;5.25;100.00;101185.81;5115230;28;20044;-48
2022/11/14 09:28:34;;;;;;;26.60;15.55;;;;;;;5.25;100.00;101180.59;5115407;28;20031;-47
2022/11/14 09:31:03;;;;;;;27.85;15.18;;;;;;;5.49;100.00;101175.34;5115140;28;20044;-52
2022/11/14 09:33:31;;;;;;;25.73;14.85;;;;;;;5.68;100.00;101175.47;5115190;28;20051;-49
2022/11/14 09:36:01;;;;;;;24.48;14.63;;;;;;;5.75;100.00;101174.31;5115087;28;20045;-50
2022/11/14 09:38:30;;;;;;;27.13;16.25;;;;;;;6.25;100.00;101170.59;5115153;28;20055;-52
2022/11/14 09:41:21;;;;;;;25.73;14.55;;;;;;;6.40;100.00;101169.94;5115096;28;20108;-51
2022/11/14 09:44:14;;;;;;;27.08;15.90;;;;;;;6.60;100.00;101173.47;5115218;28;20043;-49
2022/11/14 09:46:53;;;;;;;28.52;15.98;;;;;;;6.83;100.00;101174.22;5115076;28;20124;-53
2022/11/14 09:49:27;;;;;;;27.40;15.40;;;;;;;7.28;100.00;101173.09;5114660;28;20044;-51
2022/11/14 09:52:03;;;;;;;25.98;16.10;;;;;;;7.36;100.00;101177.94;5114479;27;20048;-50
2022/11/14 09:54:40;;;;;;;28.45;16.30;;;;;;;7.66;100.00;101166.97;5110583;28;20047;-51
2022/11/14 09:57:16;;;;;;;24.48;14.75;;;;;;;7.77;100.00;101173.38;5111434;28;20054;-49
2022/11/14 09:59:44;;;;;;;24.45;14.85;;;;;;;7.62;100.00;101161.00;5114739;28;20036;-48
2022/11/14 10:02:28;;;;;;;25.23;14.45;;;;;;;7.54;100.00;101157.91;5114649;28;20134;-50
2022/11/14 10:05:08;;;;;;;23.75;14.18;;;;;;;7.51;100.00;101151.06;5114752;28;20047;-49
2022/11/14 10:07:46;;;;;;;25.08;15.07;;;;;;;7.55;100.00;101139.53;5114424;28;20627;-52
2022/11/14 10:10:26;;;;;;;25.88;14.93;;;;;;;7.33;100.00;101136.22;5113229;28;20054;-52
2022/11/14 10:13:04;;;;;;;25.92;15.40;;;;;;;7.27;100.00;101135.59;5114325;28;20487;-49
2022/11/14 10:15:37;;;;;;;25.45;15.32;;;;;;;7.36;100.00;101131.72;5114398;28;20552;-53
2022/11/14 10:18:18;;;;;;;23.25;14.20;;;;;;;7.35;100.00;101139.59;5111909;28;20044;-51
2022/11/14 10:20:52;;;;;;;22.45;14.35;;;;;;;7.44;100.00;101141.78;5110007;28;20056;-52
2022/11/14 10:23:33;;;;;;;19.33;12.82;;;;;;;7.44;100.00;101142.66;5112697;28;20055;-52
2022/11/14 10:26:11;;;;;;;20.05;12.95;;;;;;;7.49;100.00;101134.59;5109677;28;20051;-52
2022/11/14 10:28:48;;;;;;;22.48;13.57;;;;;;;7.65;100.00;101132.09;5109754;28;20071;-49
2022/11/14 10:31:28;;;;;;;20.48;12.85;;;;;;;7.66;100.00;101136.38;5113825;27;20052;-51
2022/11/14 10:34:04;;;;;;;22.98;13.43;;;;;;;7.74;100.00;101125.53;5114072;28;20413;-49
2022/11/14 10:36:56;;;;;;;21.13;12.98;;;;;;;8.03;100.00;101133.72;5111655;28;20047;-52
2022/11/14 10:39:31;;;;;;;21.25;13.65;;;;;;;8.16;100.00;101124.34;5109688;28;20472;-53
2022/11/14 10:42:24;;;;;;;23.08;14.07;;;;;;;8.15;100.00;101116.56;5114173;28;21080;-51
2022/11/14 10:45:16;;;;;;;22.58;13.80;;;;;;;8.13;100.00;101114.84;5111931;28;20055;-52
2022/11/14 10:47:49;;;;;;;23.00;13.02;;;;;;;8.07;100.00;101117.81;5108145;28;20043;-50
2022/11/14 10:50:21;;;;;;;20.63;13.40;;;;;;;8.05;100.00;101116.19;5112876;28;20100;-51
2022/11/14 10:52:55;;;;;;;23.63;14.05;;;;;;;8.14;100.00;101113.09;5113769;28;20088;-52
2022/11/14 10:55:23;;;;;;;23.50;13.77;;;;;;;8.04;100.00;101110.06;5113603;28;20051;-53
2022/11/14 10:58:13;;;;;;;23.55;13.98;;;;;;;8.01;100.00;101115.47;5113604;28;20077;-51
2022/11/14 11:00:43;;;;;;;20.50;13.80;;;;;;;8.01;100.00;101112.84;5113445;28;20490;-51
2022/11/14 11:03:12;;;;;;;21.33;13.82;;;;;;;8.07;100.00;101109.94;5111840;28;20051;-51
2022/11/14 11:05:47;;;;;;;19.73;13.25;;;;;;;8.09;100.00;101109.88;5109048;28;20119;-52
2022/11/14 11:11:31;;;;;;;21.35;13.73;;;;;;;8.23;100.00;101104.75;5109432;28;20043;-51
2022/11/14 11:14:01;;;;;;;21.88;13.93;;;;;;;8.07;100.00;101103.84;5113490;28;20466;-53
2022/11/14 11:16:30;;;;;;;24.77;14.13;;;;;;;8.15;100.00;101090.38;5110449;28;20046;-52
2022/11/14 11:19:15;;;;;;;25.67;14.35;;;;;;;8.30;100.00;101086.94;5108883;28;20441;-51
2022/11/14 11:21:48;;;;;;;23.85;14.50;;;;;;;8.38;100.00;101083.94;5113038;28;20055;-53
2022/11/14 11:24:31;;;;;;;25.23;14.35;;;;;;;8.45;100.00;101088.81;5113004;28;20062;-51
2022/11/14 11:27:22;;;;;;;23.25;14.32;;;;;;;8.50;100.00;101091.19;5110547;28;20051;-51
2022/11/14 11:30:09;;;;;;;24.50;14.77;;;;;;;8.35;100.00;101086.72;5108666;28;20121;-50
2022/11/14 11:32:38;;;;;;;23.05;15.02;;;;;;;8.39;100.00;101089.09;5112925;28;20546;-52
2022/11/14 11:35:12;;;;;;;26.02;16.15;;;;;;;8.52;100.00;101084.09;5112691;28;20044;-52
2022/11/14 11:37:44;;;;;;;26.30;16.83;;;;;;;8.48;100.00;101084.34;5112761;28;20077;-53
2022/11/14 11:40:18;;;;;;;24.40;16.77;;;;;;;8.34;100.00;101093.72;5108124;28;20437;-53